sensor_id;sensor_type;location;lat;lon;timestamp;pressure;altitude;pressure_sealevel;temperature
73734;BMP280;62039;50.000;9.064;2023-04-03T00:02:10;101409.69;;;4.83
73734;BMP280;62039;50.000;9.064;2023-04-03T00:04:37;101408.00;;;4.82
73734;BMP280;62039;50.000;9.064;2023-04-03T00:07:04;101401.16;;;4.81
73734;BMP280;62039;50.000;9.064;2023-04-03T00:09:31;101404.69;;;4.80
73734;BMP280;62039;50.000;9.064;2023-04-03T00:12:01;101403.03;;;4.79
73734;BMP280;62039;50.000;9.064;2023-04-03T00:14:28;101398.88;;;4.77
73734;BMP280;62039;50.000;9.064;2023-04-03T00:16:54;101403.22;;;4.76
73734;BMP280;62039;50.000;9.064;2023-04-03T00:19:21;101397.22;;;4.76
73734;BMP280;62039;50.000;9.064;2023-04-03T00:21:48;101408.50;;;4.75
73734;BMP280;62039;50.000;9.064;2023-04-03T00:24:15;101408.56;;;4.73
73734;BMP280;62039;50.000;9.064;2023-04-03T00:26:42;101412.13;;;4.72
73734;BMP280;62039;50.000;9.064;2023-04-03T00:29:12;101404.34;;;4.72
73734;BMP280;62039;50.000;9.064;2023-04-03T00:31:38;101397.59;;;4.69
73734;BMP280;62039;50.000;9.064;2023-04-03T00:34:06;101404.53;;;4.69
73734;BMP280;62039;50.000;9.064;2023-04-03T00:36:33;101401.94;;;4.69
73734;BMP280;62039;50.000;9.064;2023-04-03T00:39:00;101403.63;;;4.70
73734;BMP280;62039;50.000;9.064;2023-04-03T00:41:27;101402.78;;;4.69
73734;BMP280;62039;50.000;9.064;2023-04-03T00:43:54;101404.53;;;4.69
73734;BMP280;62039;50.000;9.064;2023-04-03T00:46:23;101408.88;;;4.68
73734;BMP280;62039;50.000;9.064;2023-04-03T00:48:50;101405.44;;;4.68
73734;BMP280;62039;50.000;9.064;2023-04-03T00:51:19;101402.03;;;4.67
73734;BMP280;62039;50.000;9.064;2023-04-03T00:53:50;101404.63;;;4.67
73734;BMP280;62039;50.000;9.064;2023-04-03T00:56:21;101403.78;;;4.67
73734;BMP280;62039;50.000;9.064;2023-04-03T00:58:52;101408.25;;;4.65
73734;BMP280;62039;50.000;9.064;2023-04-03T01:01:25;101405.66;;;4.65
73734;BMP280;62039;50.000;9.064;2023-04-03T01:03:53;101412.69;;;4.63
73734;BMP280;62039;50.000;9.064;2023-04-03T01:06:24;101406.66;;;4.62
73734;BMP280;62039;50.000;9.064;2023-04-03T01:08:53;101409.34;;;4.61
73734;BMP280;62039;50.000;9.064;2023-04-03T01:11:21;101406.03;;;4.59
73734;BMP280;62039;50.000;9.064;2023-04-03T01:13:48;101416.41;;;4.59
73734;BMP280;62039;50.000;9.064;2023-04-03T01:16:15;101415.56;;;4.58
73734;BMP280;62039;50.000;9.064;2023-04-03T01:18:45;101416.41;;;4.59
73734;BMP280;62039;50.000;9.064;2023-04-03T01:24:29;101420.09;;;4.55
73734;BMP280;62039;50.000;9.064;2023-04-03T01:26:59;101414.91;;;4.55
73734;BMP280;62039;50.000;9.064;2023-04-03T01:29:27;101414.91;;;4.55
73734;BMP280;62039;50.000;9.064;2023-04-03T01:31:58;101416.66;;;4.54
73734;BMP280;62039;50.000;9.064;2023-04-03T01:34:25;101413.25;;;4.54
73734;BMP280;62039;50.000;9.064;2023-04-03T01:36:52;101414.06;;;4.54
73734;BMP280;62039;50.000;9.064;2023-04-03T01:39:19;101422.66;;;4.55
73734;BMP280;62039;50.000;9.064;2023-04-03T01:41:47;101418.41;;;4.54
73734;BMP280;62039;50.000;9.064;2023-04-03T01:44:14;101417.59;;;4.53
73734;BMP280;62039;50.000;9.064;2023-04-03T01:46:41;101417.59;;;4.53
73734;BMP280;62039;50.000;9.064;2023-04-03T01:49:10;101421.94;;;4.53
73734;BMP280;62039;50.000;9.064;2023-04-03T01:51:37;101415.13;;;4.52
73734;BMP280;62039;50.000;9.064;2023-04-03T01:54:04;101420.28;;;4.52
73734;BMP280;62039;50.000;9.064;2023-04-03T01:56:31;101417.78;;;4.50
73734;BMP280;62039;50.000;9.064;2023-04-03T01:58:58;101418.63;;;4.51
73734;BMP280;62039;50.000;9.064;2023-04-03T02:01:25;101410.94;;;4.49
73734;BMP280;62039;50.000;9.064;2023-04-03T02:03:52;101419.53;;;4.50
73734;BMP280;62039;50.000;9.064;2023-04-03T02:06:22;101416.97;;;4.50
73734;BMP280;62039;50.000;9.064;2023-04-03T02:08:49;101422.22;;;4.48
73734;BMP280;62039;50.000;9.064;2023-04-03T02:11:16;101417.88;;;4.49
73734;BMP280;62039;50.000;9.064;2023-04-03T02:13:43;101423.97;;;4.48
73734;BMP280;62039;50.000;9.064;2023-04-03T02:16:10;101423.06;;;4.49
73734;BMP280;62039;50.000;9.064;2023-04-03T02:18:38;101426.56;;;4.48
73734;BMP280;62039;50.000;9.064;2023-04-03T02:21:05;101421.38;;;4.48
73734;BMP280;62039;50.000;9.064;2023-04-03T02:23:34;101420.47;;;4.49
73734;BMP280;62039;50.000;9.064;2023-04-03T02:26:09;101417.97;;;4.47
73734;BMP280;62039;50.000;9.064;2023-04-03T02:28:36;101424.91;;;4.47
73734;BMP280;62039;50.000;9.064;2023-04-03T02:31:04;101423.13;;;4.47
73734;BMP280;62039;50.000;9.064;2023-04-03T02:33:31;101422.31;;;4.47
73734;BMP280;62039;50.000;9.064;2023-04-03T02:35:58;101424.91;;;4.47
73734;BMP280;62039;50.000;9.064;2023-04-03T02:38:25;101421.47;;;4.46
73734;BMP280;62039;50.000;9.064;2023-04-03T02:40:59;101421.59;;;4.45
73734;BMP280;62039;50.000;9.064;2023-04-03T02:43:26;101422.50;;;4.44
73734;BMP280;62039;50.000;9.064;2023-04-03T02:45:53;101417.34;;;4.44
73734;BMP280;62039;50.000;9.064;2023-04-03T02:48:20;101417.34;;;4.44
73734;BMP280;62039;50.000;9.064;2023-04-03T02:50:47;101421.59;;;4.45
73734;BMP280;62039;50.000;9.064;2023-04-03T02:53:14;101415.66;;;4.43
73734;BMP280;62039;50.000;9.064;2023-04-03T02:55:41;101416.50;;;4.43
73734;BMP280;62039;50.000;9.064;2023-04-03T02:58:11;101419.91;;;4.44
73734;BMP280;62039;50.000;9.064;2023-04-03T03:00:38;101415.66;;;4.43
73734;BMP280;62039;50.000;9.064;2023-04-03T03:03:05;101421.69;;;4.43
73734;BMP280;62039;50.000;9.064;2023-04-03T03:05:32;101422.50;;;4.44
73734;BMP280;62039;50.000;9.064;2023-04-03T03:07:59;101422.69;;;4.41
73734;BMP280;62039;50.000;9.064;2023-04-03T03:10:26;101416.78;;;4.39
73734;BMP280;62039;50.000;9.064;2023-04-03T03:12:53;101414.38;;;4.36
73734;BMP280;62039;50.000;9.064;2023-04-03T03:15:22;101413.84;;;4.30
73734;BMP280;62039;50.000;9.064;2023-04-03T03:17:49;101417.72;;;4.23
73734;BMP280;62039;50.000;9.064;2023-04-03T03:20:17;101411.25;;;4.16
73734;BMP280;62039;50.000;9.064;2023-04-03T03:22:43;101406.38;;;4.12
73734;BMP280;62039;50.000;9.064;2023-04-03T03:25:10;101408.38;;;4.07
73734;BMP280;62039;50.000;9.064;2023-04-03T03:27:37;101406.16;;;4.01
73734;BMP280;62039;50.000;9.064;2023-04-03T03:30:06;101409.94;;;3.95
73734;BMP280;62039;50.000;9.064;2023-04-03T03:32:35;101409.38;;;3.90
73734;BMP280;62039;50.000;9.064;2023-04-03T03:35:03;101408.84;;;3.85
73734;BMP280;62039;50.000;9.064;2023-04-03T03:37:30;101414.16;;;3.82
73734;BMP280;62039;50.000;9.064;2023-04-03T03:39:57;101410.94;;;3.78
73734;BMP280;62039;50.000;9.064;2023-04-03T03:42:23;101415.44;;;3.75
73734;BMP280;62039;50.000;9.064;2023-04-03T03:44:50;101407.81;;;3.72
73734;BMP280;62039;50.000;9.064;2023-04-03T03:47:17;101408.03;;;3.69
73734;BMP280;62039;50.000;9.064;2023-04-03T03:49:47;101406.44;;;3.66
73734;BMP280;62039;50.000;9.064;2023-04-03T03:52:14;101399.03;;;3.60
73734;BMP280;62039;50.000;9.064;2023-04-03T03:54:41;101403.56;;;3.57
73734;BMP280;62039;50.000;9.064;2023-04-03T03:57:07;101408.91;;;3.53
73734;BMP280;62039;50.000;9.064;2023-04-03T03:59:34;101410.84;;;3.50
73734;BMP280;62039;50.000;9.064;2023-04-03T04:02:01;101406.66;;;3.47
73734;BMP280;62039;50.000;9.064;2023-04-03T04:04:28;101415.41;;;3.45
73734;BMP280;62039;50.000;9.064;2023-04-03T04:06:58;101412.94;;;3.43
73734;BMP280;62039;50.000;9.064;2023-04-03T04:09:25;101412.34;;;3.38
73734;BMP280;62039;50.000;9.064;2023-04-03T04:11:52;101421.13;;;3.36
73734;BMP280;62039;50.000;9.064;2023-04-03T04:14:19;101426.44;;;3.33
73734;BMP280;62039;50.000;9.064;2023-04-03T04:16:46;101418.81;;;3.31
73734;BMP280;62039;50.000;9.064;2023-04-03T04:19:13;101419.81;;;3.29
73734;BMP280;62039;50.000;9.064;2023-04-03T04:21:40;101420.81;;;3.26
73734;BMP280;62039;50.000;9.064;2023-04-03T04:24:10;101413.13;;;3.25
73734;BMP280;62039;50.000;9.064;2023-04-03T04:26:37;101415.81;;;3.23
73734;BMP280;62039;50.000;9.064;2023-04-03T04:29:04;101414.16;;;3.22
73734;BMP280;62039;50.000;9.064;2023-04-03T04:31:31;101410.81;;;3.20
73734;BMP280;62039;50.000;9.064;2023-04-03T04:33:58;101417.81;;;3.18
73734;BMP280;62039;50.000;9.064;2023-04-03T04:36:25;101418.84;;;3.16
73734;BMP280;62039;50.000;9.064;2023-04-03T04:38:52;101422.41;;;3.13
73734;BMP280;62039;50.000;9.064;2023-04-03T04:41:22;101427.84;;;3.08
73734;BMP280;62039;50.000;9.064;2023-04-03T04:43:49;101422.00;;;3.05
73734;BMP280;62039;50.000;9.064;2023-04-03T04:46:16;101429.00;;;3.03
73734;BMP280;62039;50.000;9.064;2023-04-03T04:48:44;101430.00;;;3.00
73734;BMP280;62039;50.000;9.064;2023-04-03T04:51:11;101432.00;;;2.95
73734;BMP280;62039;50.000;9.064;2023-04-03T04:53:38;101433.00;;;2.93
73734;BMP280;62039;50.000;9.064;2023-04-03T04:56:06;101436.69;;;2.89
73734;BMP280;62039;50.000;9.064;2023-04-03T04:58:35;101438.69;;;2.84
73734;BMP280;62039;50.000;9.064;2023-04-03T05:01:03;101438.84;;;2.81
73734;BMP280;62039;50.000;9.064;2023-04-03T05:03:31;101440.78;;;2.77
73734;BMP280;62039;50.000;9.064;2023-04-03T05:05:58;101440.84;;;2.76
73734;BMP280;62039;50.000;9.064;2023-04-03T05:08:26;101447.00;;;2.73
73734;BMP280;62039;50.000;9.064;2023-04-03T05:10:53;101446.34;;;2.69
73734;BMP280;62039;50.000;9.064;2023-04-03T05:13:22;101446.47;;;2.66
73734;BMP280;62039;50.000;9.064;2023-04-03T05:15:51;101449.97;;;2.65
73734;BMP280;62039;50.000;9.064;2023-04-03T05:18:18;101452.75;;;2.62
73734;BMP280;62039;50.000;9.064;2023-04-03T05:20:48;101455.31;;;2.62
73734;BMP280;62039;50.000;9.064;2023-04-03T05:23:15;101448.41;;;2.63
73734;BMP280;62039;50.000;9.064;2023-04-03T05:25:41;101458.56;;;2.66
73734;BMP280;62039;50.000;9.064;2023-04-03T05:28:08;101456.72;;;2.68
73734;BMP280;62039;50.000;9.064;2023-04-03T05:30:35;101460.22;;;2.67
73734;BMP280;62039;50.000;9.064;2023-04-03T05:33:05;101466.22;;;2.67
73734;BMP280;62039;50.000;9.064;2023-04-03T05:35:32;101471.38;;;2.67
73734;BMP280;62039;50.000;9.064;2023-04-03T05:37:59;101470.47;;;2.68
73734;BMP280;62039;50.000;9.064;2023-04-03T05:40:26;101467.72;;;2.71
73734;BMP280;62039;50.000;9.064;2023-04-03T05:42:53;101468.47;;;2.73
73734;BMP280;62039;50.000;9.064;2023-04-03T05:45:20;101479.47;;;2.77
73734;BMP280;62039;50.000;9.064;2023-04-03T05:47:47;101481.88;;;2.80
73734;BMP280;62039;50.000;9.064;2023-04-03T05:50:16;101485.97;;;2.84
73734;BMP280;62039;50.000;9.064;2023-04-03T05:52:45;101488.31;;;2.89
73734;BMP280;62039;50.000;9.064;2023-04-03T05:55:14;101490.72;;;2.92
73734;BMP280;62039;50.000;9.064;2023-04-03T05:57:41;101488.88;;;2.94
73734;BMP280;62039;50.000;9.064;2023-04-03T06:00:14;101490.31;;;2.99
73734;BMP280;62039;50.000;9.064;2023-04-03T06:02:42;101496.03;;;3.04
73734;BMP280;62039;50.000;9.064;2023-04-03T06:05:09;101507.06;;;3.08
73734;BMP280;62039;50.000;9.064;2023-04-03T06:07:39;101505.88;;;3.13
73734;BMP280;62039;50.000;9.064;2023-04-03T06:10:07;101505.63;;;3.18
73734;BMP280;62039;50.000;9.064;2023-04-03T06:12:34;101510.47;;;3.24
73734;BMP280;62039;50.000;9.064;2023-04-03T06:15:01;101506.81;;;3.28
73734;BMP280;62039;50.000;9.064;2023-04-03T06:17:28;101510.78;;;3.34
73734;BMP280;62039;50.000;9.064;2023-04-03T06:19:55;101506.13;;;3.40
73734;BMP280;62039;50.000;9.064;2023-04-03T06:22:22;101512.53;;;3.49
73734;BMP280;62039;50.000;9.064;2023-04-03T06:24:51;101514.69;;;3.57
73734;BMP280;62039;50.000;9.064;2023-04-03T06:27:18;101518.59;;;3.64
73734;BMP280;62039;50.000;9.064;2023-04-03T06:29:45;101511.41;;;3.69
73734;BMP280;62039;50.000;9.064;2023-04-03T06:32:12;101507.59;;;3.76
73734;BMP280;62039;50.000;9.064;2023-04-03T06:34:39;101510.56;;;3.84
73734;BMP280;62039;50.000;9.064;2023-04-03T06:37:06;101512.72;;;3.92
73734;BMP280;62039;50.000;9.064;2023-04-03T06:39:33;101509.69;;;3.99
73734;BMP280;62039;50.000;9.064;2023-04-03T06:42:02;101519.50;;;4.08
73734;BMP280;62039;50.000;9.064;2023-04-03T06:44:29;101523.47;;;4.14
73734;BMP280;62039;50.000;9.064;2023-04-03T06:46:56;101515.28;;;4.21
73734;BMP280;62039;50.000;9.064;2023-04-03T06:49:23;101518.25;;;4.29
73734;BMP280;62039;50.000;9.064;2023-04-03T06:51:50;101529.81;;;4.38
73734;BMP280;62039;50.000;9.064;2023-04-03T06:54:17;101523.22;;;4.47
73734;BMP280;62039;50.000;9.064;2023-04-03T06:56:44;101529.63;;;4.55
73734;BMP280;62039;50.000;9.064;2023-04-03T06:59:14;101534.25;;;4.64
73734;BMP280;62039;50.000;9.064;2023-04-03T07:01:41;101534.72;;;4.71
73734;BMP280;62039;50.000;9.064;2023-04-03T07:04:08;101539.31;;;4.80
73734;BMP280;62039;50.000;9.064;2023-04-03T07:06:35;101530.25;;;4.87
73734;BMP280;62039;50.000;9.064;2023-04-03T07:09:02;101540.97;;;4.95
73734;BMP280;62039;50.000;9.064;2023-04-03T07:11:29;101546.53;;;5.03
73734;BMP280;62039;50.000;9.064;2023-04-03T07:13:56;101545.13;;;5.12
73734;BMP280;62039;50.000;9.064;2023-04-03T07:16:26;101548.00;;;5.22
73734;BMP280;62039;50.000;9.064;2023-04-03T07:18:53;101551.69;;;5.32
73734;BMP280;62039;50.000;9.064;2023-04-03T07:21:20;101545.09;;;5.40
73734;BMP280;62039;50.000;9.064;2023-04-03T07:23:47;101545.16;;;5.53
73734;BMP280;62039;50.000;9.064;2023-04-03T07:26:15;101546.22;;;5.63
73734;BMP280;62039;50.000;9.064;2023-04-03T07:28:42;101558.41;;;5.75
73734;BMP280;62039;50.000;9.064;2023-04-03T07:31:11;101546.50;;;5.85
73734;BMP280;62039;50.000;9.064;2023-04-03T07:33:41;101556.06;;;5.98
73734;BMP280;62039;50.000;9.064;2023-04-03T07:36:10;101560.53;;;6.08
73734;BMP280;62039;50.000;9.064;2023-04-03T07:38:37;101556.44;;;6.18
73734;BMP280;62039;50.000;9.064;2023-04-03T07:41:04;101552.28;;;6.28
73734;BMP280;62039;50.000;9.064;2023-04-03T07:43:31;101557.50;;;6.41
73734;BMP280;62039;50.000;9.064;2023-04-03T07:45:58;101552.44;;;6.52
73734;BMP280;62039;50.000;9.064;2023-04-03T07:48:26;101555.13;;;6.63
73734;BMP280;62039;50.000;9.064;2023-04-03T07:50:59;101554.16;;;6.77
73734;BMP280;62039;50.000;9.064;2023-04-03T07:53:26;101557.81;;;6.87
73734;BMP280;62039;50.000;9.064;2023-04-03T07:55:53;101557.78;;;7.00
73734;BMP280;62039;50.000;9.064;2023-04-03T07:58:20;101553.50;;;7.12
73734;BMP280;62039;50.000;9.064;2023-04-03T08:00:47;101552.72;;;7.22
73734;BMP280;62039;50.000;9.064;2023-04-03T08:03:14;101566.63;;;7.34
73734;BMP280;62039;50.000;9.064;2023-04-03T08:05:43;101559.81;;;7.44
73734;BMP280;62039;50.000;9.064;2023-04-03T08:08:15;101566.91;;;7.55
73734;BMP280;62039;50.000;9.064;2023-04-03T08:10:48;101560.81;;;7.67
73734;BMP280;62039;50.000;9.064;2023-04-03T08:13:15;101555.75;;;7.76
73734;BMP280;62039;50.000;9.064;2023-04-03T08:15:42;101567.06;;;7.88
73734;BMP280;62039;50.000;9.064;2023-04-03T08:18:09;101560.09;;;8.00
73734;BMP280;62039;50.000;9.064;2023-04-03T08:20:37;101562.75;;;8.11
73734;BMP280;62039;50.000;9.064;2023-04-03T08:23:04;101570.91;;;8.17
73734;BMP280;62039;50.000;9.064;2023-04-03T08:25:34;101564.56;;;8.21
73734;BMP280;62039;50.000;9.064;2023-04-03T08:28:04;101571.19;;;8.25
73734;BMP280;62039;50.000;9.064;2023-04-03T08:30:31;101568.94;;;8.32
73734;BMP280;62039;50.000;9.064;2023-04-03T08:33:00;101570.25;;;8.38
73734;BMP280;62039;50.000;9.064;2023-04-03T08:35:27;101560.44;;;8.41
73734;BMP280;62039;50.000;9.064;2023-04-03T08:37:54;101563.53;;;8.46
73734;BMP280;62039;50.000;9.064;2023-04-03T08:40:21;101556.31;;;8.50
73734;BMP280;62039;50.000;9.064;2023-04-03T08:42:58;101558.69;;;8.53
73734;BMP280;62039;50.000;9.064;2023-04-03T08:45:35;101560.34;;;8.54
73734;BMP280;62039;50.000;9.064;2023-04-03T08:48:12;101554.31;;;8.53
73734;BMP280;62039;50.000;9.064;2023-04-03T08:50:42;101557.03;;;8.52
73734;BMP280;62039;50.000;9.064;2023-04-03T08:53:12;101558.94;;;8.50
73734;BMP280;62039;50.000;9.064;2023-04-03T08:55:43;101564.34;;;8.47
73734;BMP280;62039;50.000;9.064;2023-04-03T08:58:16;101570.50;;;8.46
73734;BMP280;62039;50.000;9.064;2023-04-03T09:00:46;101571.44;;;8.45
73734;BMP280;62039;50.000;9.064;2023-04-03T09:03:15;101559.63;;;8.41
73734;BMP280;62039;50.000;9.064;2023-04-03T09:05:46;101560.44;;;8.41
73734;BMP280;62039;50.000;9.064;2023-04-03T09:08:21;101560.56;;;8.40
73734;BMP280;62039;50.000;9.064;2023-04-03T09:10:49;101557.97;;;8.40
73734;BMP280;62039;50.000;9.064;2023-04-03T09:13:26;101558.69;;;8.42
73734;BMP280;62039;50.000;9.064;2023-04-03T09:15:56;101549.78;;;8.44
73734;BMP280;62039;50.000;9.064;2023-04-03T09:18:27;101553.00;;;8.48
73734;BMP280;62039;50.000;9.064;2023-04-03T09:21:02;101560.44;;;8.52
73734;BMP280;62039;50.000;9.064;2023-04-03T09:23:45;101559.41;;;8.55
73734;BMP280;62039;50.000;9.064;2023-04-03T09:26:15;101560.09;;;8.57
73734;BMP280;62039;50.000;9.064;2023-04-03T09:28:46;101555.41;;;8.62
73734;BMP280;62039;50.000;9.064;2023-04-03T09:31:20;101553.50;;;8.64
73734;BMP280;62039;50.000;9.064;2023-04-03T09:33:49;101552.34;;;8.68
73734;BMP280;62039;50.000;9.064;2023-04-03T09:36:38;101544.97;;;8.73
73734;BMP280;62039;50.000;9.064;2023-04-03T09:39:05;101537.53;;;8.80
73734;BMP280;62039;50.000;9.064;2023-04-03T09:41:34;101541.53;;;8.84
73734;BMP280;62039;50.000;9.064;2023-04-03T09:44:20;101543.81;;;8.88
73734;BMP280;62039;50.000;9.064;2023-04-03T09:46:47;101530.41;;;8.93
73734;BMP280;62039;50.000;9.064;2023-04-03T09:49:14;101534.19;;;9.00
73734;BMP280;62039;50.000;9.064;2023-04-03T09:51:41;101536.19;;;9.08
73734;BMP280;62039;50.000;9.064;2023-04-03T09:54:33;101539.97;;;9.15
73734;BMP280;62039;50.000;9.064;2023-04-03T09:57:05;101545.75;;;9.18
73734;BMP280;62039;50.000;9.064;2023-04-03T09:59:45;101534.28;;;9.21
73734;BMP280;62039;50.000;9.064;2023-04-03T10:02:23;101534.03;;;9.24
73734;BMP280;62039;50.000;9.064;2023-04-03T10:04:54;101537.34;;;9.26
73734;BMP280;62039;50.000;9.064;2023-04-03T10:07:36;101536.38;;;9.27
73734;BMP280;62039;50.000;9.064;2023-04-03T10:10:17;101539.25;;;9.24
73734;BMP280;62039;50.000;9.064;2023-04-03T10:12:44;101531.66;;;9.21
73734;BMP280;62039;50.000;9.064;2023-04-03T10:15:15;101536.41;;;9.16
73734;BMP280;62039;50.000;9.064;2023-04-03T10:17:51;101535.00;;;9.12
73734;BMP280;62039;50.000;9.064;2023-04-03T10:20:27;101530.16;;;9.07
73734;BMP280;62039;50.000;9.064;2023-04-03T10:23:05;101534.78;;;9.03
73734;BMP280;62039;50.000;9.064;2023-04-03T10:25:43;101536.22;;;8.96
73734;BMP280;62039;50.000;9.064;2023-04-03T10:28:20;101530.66;;;8.90
73734;BMP280;62039;50.000;9.064;2023-04-03T10:30:58;101529.34;;;8.84
73734;BMP280;62039;50.000;9.064;2023-04-03T10:33:36;101532.31;;;8.80
73734;BMP280;62039;50.000;9.064;2023-04-03T10:36:17;101529.81;;;8.78
73734;BMP280;62039;50.000;9.064;2023-04-03T10:38:52;101533.63;;;8.74
73734;BMP280;62039;50.000;9.064;2023-04-03T10:41:25;101526.75;;;8.73
73734;BMP280;62039;50.000;9.064;2023-04-03T10:44:03;101518.81;;;8.75
73734;BMP280;62039;50.000;9.064;2023-04-03T10:46:38;101515.13;;;8.77
73734;BMP280;62039;50.000;9.064;2023-04-03T10:49:22;101522.50;;;8.83
73734;BMP280;62039;50.000;9.064;2023-04-03T10:51:56;101528.16;;;8.88
73734;BMP280;62039;50.000;9.064;2023-04-03T10:54:31;101522.69;;;8.91
73734;BMP280;62039;50.000;9.064;2023-04-03T10:57:02;101517.00;;;8.97
73734;BMP280;62039;50.000;9.064;2023-04-03T10:59:41;101520.09;;;9.02
73734;BMP280;62039;50.000;9.064;2023-04-03T11:02:19;101526.59;;;9.08
73734;BMP280;62039;50.000;9.064;2023-04-03T11:04:52;101523.50;;;9.14
73734;BMP280;62039;50.000;9.064;2023-04-03T11:07:22;101519.44;;;9.21
73734;BMP280;62039;50.000;9.064;2023-04-03T11:09:52;101519.53;;;9.31
73734;BMP280;62039;50.000;9.064;2023-04-03T11:12:24;101511.56;;;9.43
73734;BMP280;62039;50.000;9.064;2023-04-03T11:14:55;101510.47;;;9.57
73734;BMP280;62039;50.000;9.064;2023-04-03T11:17:31;101515.38;;;9.71
73734;BMP280;62039;50.000;9.064;2023-04-03T11:20:05;101507.41;;;9.84
73734;BMP280;62039;50.000;9.064;2023-04-03T11:22:35;101504.44;;;9.98
73734;BMP280;62039;50.000;9.064;2023-04-03T11:25:06;101488.31;;;10.14
73734;BMP280;62039;50.000;9.064;2023-04-03T11:27:42;101488.81;;;10.29
73734;BMP280;62039;50.000;9.064;2023-04-03T11:30:15;101490.97;;;10.44
73734;BMP280;62039;50.000;9.064;2023-04-03T11:32:59;101500.28;;;10.58
73734;BMP280;62039;50.000;9.064;2023-04-03T11:35:28;101498.38;;;10.70
73734;BMP280;62039;50.000;9.064;2023-04-03T11:37:57;101493.88;;;10.81
73734;BMP280;62039;50.000;9.064;2023-04-03T11:40:28;101492.50;;;10.87
73734;BMP280;62039;50.000;9.064;2023-04-03T11:43:04;101494.31;;;10.96
73734;BMP280;62039;50.000;9.064;2023-04-03T11:45:36;101485.69;;;11.05
73734;BMP280;62039;50.000;9.064;2023-04-03T11:54:36;101479.34;;;11.36
73734;BMP280;62039;50.000;9.064;2023-04-03T11:57:50;101473.31;;;11.46
73734;BMP280;62039;50.000;9.064;2023-04-03T12:00:50;101471.41;;;11.57
73734;BMP280;62039;50.000;9.064;2023-04-03T12:09:31;101452.44;;;12.02
73734;BMP280;62039;50.000;9.064;2023-04-03T12:12:00;101444.25;;;12.14
73734;BMP280;62039;50.000;9.064;2023-04-03T12:14:28;101442.97;;;12.28
73734;BMP280;62039;50.000;9.064;2023-04-03T12:16:55;101442.00;;;12.39
73734;BMP280;62039;50.000;9.064;2023-04-03T12:19:36;101452.97;;;12.52
73734;BMP280;62039;50.000;9.064;2023-04-03T12:22:13;101455.69;;;12.60
73734;BMP280;62039;50.000;9.064;2023-04-03T12:24:43;101447.38;;;12.65
73734;BMP280;62039;50.000;9.064;2023-04-03T12:27:21;101438.53;;;12.66
73734;BMP280;62039;50.000;9.064;2023-04-03T12:29:54;101436.88;;;12.65
73734;BMP280;62039;50.000;9.064;2023-04-03T12:32:34;101446.03;;;12.61
73734;BMP280;62039;50.000;9.064;2023-04-03T12:35:10;101430.19;;;12.52
73734;BMP280;62039;50.000;9.064;2023-04-03T12:38:05;101431.44;;;12.48
73734;BMP280;62039;50.000;9.064;2023-04-03T12:40:43;101425.38;;;12.48
73734;BMP280;62039;50.000;9.064;2023-04-03T12:43:24;101428.16;;;12.46
73734;BMP280;62039;50.000;9.064;2023-04-03T12:45:58;101424.84;;;12.44
73734;BMP280;62039;50.000;9.064;2023-04-03T12:48:30;101422.38;;;12.43
73734;BMP280;62039;50.000;9.064;2023-04-03T12:50:58;101422.38;;;12.43
73734;BMP280;62039;50.000;9.064;2023-04-03T12:53:27;101421.28;;;12.45
73734;BMP280;62039;50.000;9.064;2023-04-03T12:56:21;101413.56;;;12.44
73734;BMP280;62039;50.000;9.064;2023-04-03T12:58:49;101409.00;;;12.46
73734;BMP280;62039;50.000;9.064;2023-04-03T13:01:20;101412.00;;;12.51
73734;BMP280;62039;50.000;9.064;2023-04-03T13:03:49;101407.44;;;12.53
73734;BMP280;62039;50.000;9.064;2023-04-03T13:06:19;101411.25;;;12.59
73734;BMP280;62039;50.000;9.064;2023-04-03T13:08:50;101410.94;;;12.62
73734;BMP280;62039;50.000;9.064;2023-04-03T13:11:21;101407.91;;;12.66
73734;BMP280;62039;50.000;9.064;2023-04-03T13:13:56;101404.00;;;12.70
73734;BMP280;62039;50.000;9.064;2023-04-03T13:16:23;101406.50;;;12.72
73734;BMP280;62039;50.000;9.064;2023-04-03T13:18:51;101400.13;;;12.74
73734;BMP280;62039;50.000;9.064;2023-04-03T13:21:21;101401.47;;;12.78
73734;BMP280;62039;50.000;9.064;2023-04-03T13:23:51;101393.59;;;12.78
73734;BMP280;62039;50.000;9.064;2023-04-03T13:26:32;101389.34;;;12.77
73734;BMP280;62039;50.000;9.064;2023-04-03T13:29:03;101384.22;;;12.76
73734;BMP280;62039;50.000;9.064;2023-04-03T13:31:33;101387.16;;;12.73
73734;BMP280;62039;50.000;9.064;2023-04-03T13:34:05;101391.22;;;12.67
73734;BMP280;62039;50.000;9.064;2023-04-03T13:36:34;101390.81;;;12.62
73734;BMP280;62039;50.000;9.064;2023-04-03T13:39:05;101391.25;;;12.58
73734;BMP280;62039;50.000;9.064;2023-04-03T13:41:37;101381.38;;;12.51
73734;BMP280;62039;50.000;9.064;2023-04-03T13:44:27;101387.63;;;12.41
73734;BMP280;62039;50.000;9.064;2023-04-03T13:46:55;101388.06;;;12.36
73734;BMP280;62039;50.000;9.064;2023-04-03T13:49:30;101379.94;;;12.30
73734;BMP280;62039;50.000;9.064;2023-04-03T13:51:57;101379.56;;;12.25
73734;BMP280;62039;50.000;9.064;2023-04-03T13:54:36;101371.97;;;12.22
73734;BMP280;62039;50.000;9.064;2023-04-03T13:57:11;101369.34;;;12.22
73734;BMP280;62039;50.000;9.064;2023-04-03T13:59:39;101379.44;;;12.16
73734;BMP280;62039;50.000;9.064;2023-04-03T14:02:16;101380.56;;;12.14
73734;BMP280;62039;50.000;9.064;2023-04-03T14:04:52;101376.91;;;12.07
73734;BMP280;62039;50.000;9.064;2023-04-03T14:07:20;101370.41;;;12.01
73734;BMP280;62039;50.000;9.064;2023-04-03T14:09:47;101368.94;;;11.99
73734;BMP280;62039;50.000;9.064;2023-04-03T14:12:18;101370.03;;;11.96
73734;BMP280;62039;50.000;9.064;2023-04-03T14:14:57;101374.56;;;11.94
73734;BMP280;62039;50.000;9.064;2023-04-03T14:17:25;101366.72;;;11.94
73734;BMP280;62039;50.000;9.064;2023-04-03T14:19:53;101366.06;;;11.92
73734;BMP280;62039;50.000;9.064;2023-04-03T14:22:22;101374.31;;;11.88
73734;BMP280;62039;50.000;9.064;2023-04-03T14:24:50;101356.72;;;11.80
73734;BMP280;62039;50.000;9.064;2023-04-03T14:27:22;101361.16;;;11.70
73734;BMP280;62039;50.000;9.064;2023-04-03T14:29:51;101361.03;;;11.62
73734;BMP280;62039;50.000;9.064;2023-04-03T14:32:21;101348.84;;;11.53
73734;BMP280;62039;50.000;9.064;2023-04-03T14:34:49;101352.81;;;11.47
73734;BMP280;62039;50.000;9.064;2023-04-03T14:37:20;101340.44;;;11.39
73734;BMP280;62039;50.000;9.064;2023-04-03T14:39:51;101349.63;;;11.34